Time;durP1;ratioP1;P1;durP2;ratioP2;P2;SDS_P1;SDS_P2;PMS_P1;PMS_P2;Temp;Humidity;BMP_temperature;BMP_pressure;BME280_temperature;BME280_humidity;BME280_pressure;Samples;Min_cycle;Max_cycle;Signal;HPM_P1;HPM_P2
2021/11/21 00:02:00;;;;;;;13.00;7.23;;;10.10;99.90;;;;;;5031237;28;20436;-67
2021/11/21 00:04:26;;;;;;;9.30;5.57;;;10.10;99.90;;;;;;5031008;28;20407;-67
2021/11/21 00:06:51;;;;;;;12.70;6.53;;;10.00;99.90;;;;;;5030853;28;20188;-67
2021/11/21 00:09:17;;;;;;;8.83;6.17;;;10.00;99.90;;;;;;5030967;28;20277;-67
2021/11/21 00:11:43;;;;;;;11.80;6.10;;;10.00;99.90;;;;;;5030525;28;20255;-67
2021/11/21 00:14:09;;;;;;;11.47;7.07;;;10.00;99.90;;;;;;5030834;28;20660;-67
2021/11/21 00:16:35;;;;;;;9.63;5.40;;;10.00;99.90;;;;;;5033957;28;20181;-69
2021/11/21 00:19:01;;;;;;;13.33;5.70;;;10.10;99.90;;;;;;5034964;28;20497;-67
2021/11/21 00:21:27;;;;;;;12.57;6.73;;;10.00;99.90;;;;;;5034656;28;20455;-68
2021/11/21 00:23:54;;;;;;;11.57;7.10;;;10.00;99.90;;;;;;5034920;28;20163;-67
2021/11/21 00:26:20;;;;;;;12.30;6.70;;;10.00;99.90;;;;;;5034854;28;20574;-67
2021/11/21 00:28:46;;;;;;;12.43;5.97;;;10.00;99.90;;;;;;5031574;28;20498;-67
2021/11/21 00:31:12;;;;;;;10.03;6.13;;;9.90;99.90;;;;;;5015055;28;20188;-68
2021/11/21 00:33:37;;;;;;;10.50;6.03;;;10.00;99.90;;;;;;5015079;28;20420;-70
2021/11/21 00:36:04;;;;;;;8.93;5.53;;;9.90;99.90;;;;;;5015430;28;20165;-67
2021/11/21 00:38:29;;;;;;;10.07;4.10;;;9.90;99.90;;;;;;5015307;28;20165;-68
2021/11/21 00:40:55;;;;;;;10.63;6.00;;;10.00;99.90;;;;;;5014779;28;20434;-68
2021/11/21 00:43:21;;;;;;;8.33;4.80;;;10.00;99.90;;;;;;5013595;28;20172;-70
2021/11/21 00:45:48;;;;;;;14.50;6.27;;;9.90;99.90;;;;;;5014729;28;20276;-68
2021/11/21 00:48:23;;;;;;;9.03;6.30;;;9.90;99.90;;;;;;5014718;28;20409;-68
2021/11/21 00:50:57;;;;;;;10.53;5.40;;;9.90;99.90;;;;;;5014878;28;20445;-68
2021/11/21 00:53:23;;;;;;;10.40;5.70;;;9.90;99.90;;;;;;5014582;28;20413;-68
2021/11/21 00:56:01;;;;;;;9.97;5.30;;;9.90;99.90;;;;;;5014657;28;20399;-68
2021/11/21 00:58:28;;;;;;;10.23;6.03;;;10.00;99.90;;;;;;5014763;28;20226;-67
2021/11/21 01:00:54;;;;;;;8.23;4.90;;;9.90;99.90;;;;;;5014420;28;20621;-67
2021/11/21 01:03:21;;;;;;;11.70;6.30;;;9.90;99.90;;;;;;5013440;28;20509;-67
2021/11/21 01:05:49;;;;;;;5.63;4.03;;;9.90;99.90;;;;;;5014402;28;20751;-68
2021/11/21 01:08:15;;;;;;;10.00;5.27;;;9.90;99.90;;;;;;5014489;28;20403;-70
2021/11/21 01:10:41;;;;;;;8.43;5.37;;;9.90;99.90;;;;;;5014243;28;20506;-67
2021/11/21 01:13:07;;;;;;;11.57;5.90;;;9.90;99.90;;;;;;5014335;28;20462;-68
2021/11/21 01:15:34;;;;;;;11.37;5.60;;;9.90;99.90;;;;;;5014299;28;20408;-68
2021/11/21 01:18:00;;;;;;;9.27;5.77;;;9.90;99.90;;;;;;5014503;28;20169;-67
2021/11/21 01:20:29;;;;;;;7.63;4.77;;;9.90;99.90;;;;;;5013920;28;20450;-67
2021/11/21 01:22:55;;;;;;;8.23;4.97;;;9.90;99.90;;;;;;5014488;28;20790;-67
2021/11/21 01:25:21;;;;;;;12.13;5.33;;;9.90;99.90;;;;;;5013983;28;20446;-67
2021/11/21 01:27:46;;;;;;;8.60;4.63;;;9.90;99.90;;;;;;5013551;28;20415;-67
2021/11/21 01:30:17;;;;;;;6.37;4.60;;;9.90;99.90;;;;;;5013975;28;20533;-66
2021/11/21 01:32:43;;;;;;;9.67;5.60;;;9.80;99.90;;;;;;5014033;28;20211;-67
2021/11/21 01:35:09;;;;;;;6.60;3.90;;;9.90;99.90;;;;;;5013853;28;20780;-67
2021/11/21 01:37:35;;;;;;;10.90;4.47;;;9.80;99.90;;;;;;5013969;28;20211;-66
2021/11/21 01:40:01;;;;;;;9.80;5.33;;;9.80;99.90;;;;;;5013755;28;20922;-67
2021/11/21 01:42:27;;;;;;;10.23;5.63;;;9.80;99.90;;;;;;5013943;28;20549;-66
2021/11/21 01:44:53;;;;;;;10.87;5.70;;;9.80;99.90;;;;;;5014275;28;20518;-66
2021/11/21 01:47:19;;;;;;;9.20;5.53;;;9.80;99.90;;;;;;5013677;28;20667;-67
2021/11/21 01:49:45;;;;;;;9.37;5.60;;;9.70;99.90;;;;;;5013628;28;20231;-67
2021/11/21 01:52:10;;;;;;;9.00;4.53;;;9.80;99.90;;;;;;5013604;28;20465;-67
2021/11/21 01:54:36;;;;;;;9.73;5.33;;;9.70;99.90;;;;;;5013629;28;20176;-69
2021/11/21 01:57:03;;;;;;;9.03;6.03;;;9.70;99.90;;;;;;5014529;28;20172;-68
2021/11/21 01:59:29;;;;;;;9.10;5.20;;;9.70;99.90;;;;;;5014626;28;20442;-68
2021/11/21 02:01:55;;;;;;;6.60;3.97;;;9.60;99.90;;;;;;5013653;28;20424;-68
2021/11/21 02:04:21;;;;;;;10.00;5.67;;;9.60;99.90;;;;;;5013661;28;20415;-69
2021/11/21 02:06:47;;;;;;;10.00;6.27;;;9.70;99.90;;;;;;5013779;28;20263;-67
2021/11/21 02:09:13;;;;;;;10.33;6.30;;;9.70;99.90;;;;;;5013632;28;20501;-69
2021/11/21 02:11:39;;;;;;;8.10;5.13;;;9.70;99.90;;;;;;5020125;28;20508;-69
2021/11/21 02:14:04;;;;;;;8.90;5.10;;;9.70;99.90;;;;;;5032985;28;20912;-69
2021/11/21 02:16:31;;;;;;;11.40;5.30;;;9.70;99.90;;;;;;5033034;28;20231;-69
2021/11/21 02:18:58;;;;;;;8.80;4.20;;;9.70;99.90;;;;;;5031583;28;20175;-68
2021/11/21 02:21:24;;;;;;;13.87;7.63;;;9.70;99.90;;;;;;5032795;28;20426;-68
2021/11/21 02:23:50;;;;;;;12.33;6.07;;;9.70;99.90;;;;;;5032790;28;20406;-68
2021/11/21 02:26:17;;;;;;;9.20;5.17;;;9.70;99.90;;;;;;5028399;28;20496;-68
2021/11/21 02:28:47;;;;;;;11.97;6.10;;;9.70;99.90;;;;;;5032655;28;20961;-69
2021/11/21 02:31:13;;;;;;;11.97;5.40;;;9.70;99.90;;;;;;5032610;28;20446;-67
2021/11/21 02:33:41;;;;;;;10.53;5.80;;;9.60;99.90;;;;;;5032759;28;20495;-69
2021/11/21 02:36:07;;;;;;;5.90;4.70;;;9.70;99.90;;;;;;5032641;28;20493;-67
2021/11/21 02:38:35;;;;;;;11.23;6.13;;;9.70;99.90;;;;;;5031840;28;20754;-67
2021/11/21 02:41:03;;;;;;;11.47;5.40;;;9.70;99.90;;;;;;5031879;28;20429;-68
2021/11/21 02:43:29;;;;;;;8.07;5.03;;;9.70;99.90;;;;;;5031416;28;20776;-68
2021/11/21 02:45:56;;;;;;;8.33;5.30;;;9.70;99.90;;;;;;5032391;28;20800;-68
2021/11/21 02:48:27;;;;;;;8.20;5.77;;;9.70;99.90;;;;;;5032443;28;20166;-68
2021/11/21 02:50:54;;;;;;;12.37;6.03;;;9.70;99.90;;;;;;5032326;28;20466;-68
2021/11/21 02:53:23;;;;;;;9.83;6.20;;;9.60;99.90;;;;;;5032277;28;20463;-69
2021/11/21 02:55:52;;;;;;;9.70;4.40;;;9.60;99.90;;;;;;5032356;28;20755;-67
2021/11/21 02:58:18;;;;;;;7.20;4.43;;;9.60;99.90;;;;;;5032380;28;20429;-69
2021/11/21 03:00:44;;;;;;;11.50;5.57;;;9.60;99.90;;;;;;5032064;28;20423;-68
2021/11/21 03:03:12;;;;;;;14.10;6.70;;;9.60;99.90;;;;;;5032189;28;20402;-69
2021/11/21 03:05:38;;;;;;;12.77;6.57;;;9.60;99.90;;;;;;5032067;28;20404;-69
2021/11/21 03:08:04;;;;;;;9.63;5.57;;;9.60;99.90;;;;;;5032200;28;20491;-69
2021/11/21 03:10:30;;;;;;;10.17;5.33;;;9.60;99.90;;;;;;5032194;28;20704;-68
2021/11/21 03:12:59;;;;;;;16.80;5.63;;;9.60;99.90;;;;;;5032022;28;20194;-67
2021/11/21 03:15:26;;;;;;;8.67;4.13;;;9.60;99.90;;;;;;5031869;28;20413;-68
2021/11/21 03:17:53;;;;;;;8.63;5.30;;;9.60;99.90;;;;;;5032095;28;20410;-68
2021/11/21 03:20:26;;;;;;;13.03;7.10;;;9.60;99.90;;;;;;5031822;28;20940;-69
2021/11/21 03:22:52;;;;;;;7.57;4.70;;;9.60;99.90;;;;;;5032016;28;20464;-69
2021/11/21 03:25:18;;;;;;;10.70;6.67;;;9.60;99.90;;;;;;5031899;28;20414;-68
2021/11/21 03:27:44;;;;;;;11.90;6.67;;;9.60;99.90;;;;;;5032315;28;20407;-68
2021/11/21 03:30:16;;;;;;;14.90;5.80;;;9.60;99.90;;;;;;5032063;28;20453;-67
2021/11/21 03:32:42;;;;;;;15.53;6.90;;;9.60;99.90;;;;;;5030549;28;20201;-68
2021/11/21 03:35:08;;;;;;;12.10;6.10;;;9.50;99.90;;;;;;5031661;28;20929;-67
2021/11/21 03:37:35;;;;;;;17.17;8.37;;;9.60;99.90;;;;;;5031640;28;20180;-68
2021/11/21 03:40:01;;;;;;;9.40;6.03;;;9.50;99.90;;;;;;5031893;28;20719;-67
2021/11/21 03:42:27;;;;;;;17.93;5.87;;;9.50;99.90;;;;;;5031740;28;20460;-69
2021/11/21 03:44:54;;;;;;;13.17;5.90;;;9.50;99.90;;;;;;5031292;28;20416;-68
2021/11/21 03:47:20;;;;;;;12.93;6.43;;;9.50;99.90;;;;;;5031521;28;20259;-68
2021/11/21 03:49:45;;;;;;;8.37;6.00;;;9.50;99.90;;;;;;5030943;28;20432;-69
2021/11/21 03:52:11;;;;;;;12.40;5.40;;;9.50;99.90;;;;;;5031534;28;20867;-69
2021/11/21 03:54:37;;;;;;;14.70;6.90;;;9.50;99.90;;;;;;5031275;28;20245;-67
2021/11/21 03:57:03;;;;;;;14.27;6.93;;;9.50;99.90;;;;;;5031313;28;20183;-67
2021/11/21 03:59:29;;;;;;;10.80;6.27;;;9.60;99.90;;;;;;5031211;28;20796;-67
2021/11/21 04:01:55;;;;;;;11.57;8.07;;;9.50;99.90;;;;;;5031208;28;20489;-67
2021/11/21 04:04:21;;;;;;;13.07;6.00;;;9.50;99.90;;;;;;5031002;28;20218;-68
2021/11/21 04:06:47;;;;;;;12.67;6.20;;;9.50;99.90;;;;;;5031269;28;20456;-67
2021/11/21 04:09:13;;;;;;;10.30;5.60;;;9.40;99.90;;;;;;5031232;28;20495;-67
2021/11/21 04:11:39;;;;;;;12.57;6.83;;;9.50;99.90;;;;;;5031153;28;20649;-67
2021/11/21 04:14:04;;;;;;;13.23;7.33;;;9.50;99.90;;;;;;5031061;28;20159;-67
2021/11/21 04:16:31;;;;;;;12.93;7.77;;;9.40;99.90;;;;;;5031002;28;20167;-67
2021/11/21 04:18:56;;;;;;;12.10;6.77;;;9.40;99.90;;;;;;5030907;28;20210;-68
2021/11/21 04:21:22;;;;;;;8.50;6.20;;;9.40;99.90;;;;;;5030772;28;21003;-67
2021/11/21 04:23:48;;;;;;;12.57;7.07;;;9.40;99.90;;;;;;5029542;28;20174;-71
2021/11/21 04:26:15;;;;;;;12.83;7.13;;;9.40;99.90;;;;;;5031138;28;20668;-67
2021/11/21 04:28:41;;;;;;;13.67;7.40;;;9.30;99.90;;;;;;5030954;28;20167;-66
2021/11/21 04:31:06;;;;;;;14.33;6.40;;;9.40;99.90;;;;;;5030661;28;20431;-67
2021/11/21 04:33:32;;;;;;;14.43;8.70;;;9.40;99.90;;;;;;5030986;28;20168;-68
2021/11/21 04:35:58;;;;;;;12.80;5.90;;;9.30;99.90;;;;;;5030729;28;20180;-67
2021/11/21 04:38:24;;;;;;;11.30;5.57;;;9.30;99.90;;;;;;5031184;28;20533;-67
2021/11/21 04:40:52;;;;;;;13.90;6.00;;;9.30;99.90;;;;;;5030898;28;20264;-67
2021/11/21 04:43:19;;;;;;;11.47;6.73;;;9.40;99.90;;;;;;5030831;28;20415;-67
2021/11/21 04:45:45;;;;;;;12.80;5.70;;;9.30;99.90;;;;;;5030793;28;20410;-69
2021/11/21 04:48:11;;;;;;;12.10;6.33;;;9.40;99.90;;;;;;5030620;28;20489;-69
2021/11/21 04:50:37;;;;;;;14.80;7.07;;;9.40;99.90;;;;;;5030697;28;20430;-68
2021/11/21 04:53:04;;;;;;;14.00;6.60;;;9.30;99.90;;;;;;5030641;28;20838;-69
2021/11/21 04:55:30;;;;;;;13.80;7.03;;;9.30;99.90;;;;;;5030824;28;20223;-67
2021/11/21 04:57:55;;;;;;;14.73;8.00;;;9.30;99.90;;;;;;5030619;28;20405;-67
2021/11/21 05:00:21;;;;;;;11.60;6.40;;;9.30;99.90;;;;;;5030598;28;20280;-68
2021/11/21 05:02:48;;;;;;;10.20;6.27;;;9.20;99.90;;;;;;5033458;28;20251;-68
2021/11/21 05:05:16;;;;;;;10.70;6.60;;;9.20;99.90;;;;;;5034298;28;20695;-67
2021/11/21 05:07:42;;;;;;;15.10;6.70;;;9.20;99.90;;;;;;5034412;28;20415;-68
2021/11/21 05:10:09;;;;;;;20.20;6.67;;;9.20;99.90;;;;;;5034176;28;20431;-67
2021/11/21 05:12:36;;;;;;;13.27;7.13;;;9.20;99.90;;;;;;5034175;28;20819;-68
2021/11/21 05:15:03;;;;;;;12.97;6.93;;;9.10;99.90;;;;;;5034013;28;20442;-68
2021/11/21 05:17:29;;;;;;;11.80;6.57;;;9.10;99.90;;;;;;5034116;28;20418;-68
2021/11/21 05:19:58;;;;;;;11.83;5.60;;;9.10;99.90;;;;;;5033809;28;20819;-68
2021/11/21 05:22:24;;;;;;;16.50;7.17;;;9.20;99.90;;;;;;5034112;28;20165;-69
2021/11/21 05:24:50;;;;;;;12.57;6.80;;;9.10;99.90;;;;;;5033988;28;20413;-68
2021/11/21 05:27:15;;;;;;;9.60;6.37;;;9.00;99.90;;;;;;5033972;28;20410;-68
2021/11/21 05:29:41;;;;;;;10.80;8.33;;;9.10;99.90;;;;;;5033719;28;20201;-67
2021/11/21 05:32:07;;;;;;;13.10;6.20;;;9.00;99.90;;;;;;5033706;28;20200;-68
2021/11/21 05:34:32;;;;;;;10.03;6.03;;;9.10;99.90;;;;;;5033711;28;20167;-68
2021/11/21 05:36:58;;;;;;;12.80;6.33;;;9.00;99.90;;;;;;5033771;28;20218;-70
2021/11/21 05:39:24;;;;;;;10.27;6.50;;;9.00;99.90;;;;;;5033705;28;20207;-68
2021/11/21 05:41:49;;;;;;;13.90;6.90;;;9.00;99.90;;;;;;5033579;28;20178;-68
2021/11/21 05:44:15;;;;;;;11.97;5.90;;;9.00;99.90;;;;;;5033645;28;20225;-68
2021/11/21 05:46:42;;;;;;;12.90;7.20;;;9.00;99.90;;;;;;5033562;28;20173;-68
2021/11/21 05:49:08;;;;;;;11.40;6.70;;;9.00;99.90;;;;;;5033519;28;20161;-67
2021/11/21 05:51:34;;;;;;;10.10;5.50;;;9.00;99.90;;;;;;5033383;28;20568;-68
2021/11/21 05:53:59;;;;;;;10.87;6.53;;;9.00;99.90;;;;;;5033477;28;20174;-68
2021/11/21 05:56:25;;;;;;;18.60;7.00;;;9.00;99.90;;;;;;5033641;28;20174;-69
2021/11/21 05:58:50;;;;;;;10.63;5.57;;;8.90;99.90;;;;;;5033459;28;20171;-69
2021/11/21 06:01:18;;;;;;;11.83;6.97;;;9.00;99.90;;;;;;5033548;28;20196;-68
2021/11/21 06:03:44;;;;;;;13.97;7.10;;;9.00;99.90;;;;;;5033401;28;20481;-69
2021/11/21 06:06:10;;;;;;;10.80;5.17;;;9.10;99.90;;;;;;5033415;28;20411;-69
2021/11/21 06:08:36;;;;;;;8.47;5.80;;;9.00;99.90;;;;;;5033216;28;21037;-68
2021/11/21 06:11:02;;;;;;;8.80;4.93;;;8.90;99.90;;;;;;5033044;28;20418;-68
2021/11/21 06:13:28;;;;;;;8.47;5.23;;;8.90;99.90;;;;;;5032925;28;20465;-68
2021/11/21 06:15:54;;;;;;;11.63;5.87;;;8.90;99.90;;;;;;5033324;28;20410;-68
2021/11/21 06:18:20;;;;;;;8.10;5.40;;;9.00;99.90;;;;;;5033391;28;20274;-68
2021/11/21 06:20:47;;;;;;;7.37;4.17;;;8.90;99.90;;;;;;5032701;28;20563;-68
2021/11/21 06:23:13;;;;;;;12.83;6.17;;;8.90;99.90;;;;;;5033083;28;20178;-67
2021/11/21 06:25:39;;;;;;;13.07;7.40;;;8.80;99.90;;;;;;5032751;28;20419;-66
2021/11/21 06:28:05;;;;;;;11.10;6.50;;;8.80;99.90;;;;;;5032706;28;20426;-67
2021/11/21 06:30:31;;;;;;;8.53;5.80;;;8.90;99.90;;;;;;5032822;28;20515;-67
2021/11/21 06:32:57;;;;;;;9.80;5.87;;;8.80;99.90;;;;;;5032592;28;20196;-67
2021/11/21 06:35:23;;;;;;;16.73;7.07;;;8.80;99.90;;;;;;5031221;28;20440;-67
2021/11/21 06:37:48;;;;;;;9.73;5.60;;;8.80;99.90;;;;;;5032673;28;20441;-68
2021/11/21 06:40:15;;;;;;;15.57;7.97;;;8.80;99.90;;;;;;5032248;28;20194;-68
2021/11/21 06:42:42;;;;;;;11.03;5.67;;;8.80;99.90;;;;;;5032450;28;20620;-67
2021/11/21 06:45:09;;;;;;;14.07;6.33;;;8.80;99.90;;;;;;5032657;28;20562;-68
2021/11/21 06:47:35;;;;;;;14.17;6.33;;;8.90;99.90;;;;;;5032608;28;20417;-68
2021/11/21 06:50:02;;;;;;;10.90;5.50;;;8.80;99.90;;;;;;5032567;28;20936;-68
2021/11/21 06:52:30;;;;;;;14.10;6.50;;;8.80;99.90;;;;;;5032351;28;20542;-68
2021/11/21 06:54:56;;;;;;;11.20;4.73;;;8.90;99.90;;;;;;5032176;28;20419;-68
2021/11/21 06:57:22;;;;;;;6.43;4.93;;;8.90;99.90;;;;;;5032126;28;20406;-69
2021/11/21 06:59:48;;;;;;;10.00;4.97;;;9.00;99.90;;;;;;5032047;28;20189;-68
2021/11/21 07:02:14;;;;;;;10.80;5.83;;;9.00;99.90;;;;;;5032292;28;20609;-66
2021/11/21 07:04:40;;;;;;;9.83;6.10;;;8.90;99.90;;;;;;5032316;28;20398;-67
2021/11/21 07:07:10;;;;;;;8.17;4.23;;;8.90;99.90;;;;;;5030865;28;21022;-68
2021/11/21 07:09:36;;;;;;;7.80;4.20;;;8.90;99.90;;;;;;5031987;28;20200;-68
2021/11/21 07:12:02;;;;;;;10.83;5.23;;;8.90;99.90;;;;;;5026043;28;20464;-68
2021/11/21 07:14:28;;;;;;;13.30;5.70;;;8.90;99.90;;;;;;5020020;28;20403;-67
2021/11/21 07:16:54;;;;;;;10.60;6.10;;;8.90;99.90;;;;;;5018380;28;20414;-67
2021/11/21 07:19:19;;;;;;;9.30;4.97;;;8.90;99.90;;;;;;5012396;28;20294;-68
2021/11/21 07:21:45;;;;;;;10.57;5.77;;;8.90;99.90;;;;;;5013909;28;20246;-69
2021/11/21 07:24:12;;;;;;;10.33;6.20;;;8.90;99.90;;;;;;5013174;28;20205;-67
2021/11/21 07:26:38;;;;;;;12.77;5.17;;;8.90;99.90;;;;;;5013130;28;20526;-68
2021/11/21 07:29:06;;;;;;;8.50;4.37;;;8.90;99.90;;;;;;5023380;28;20413;-68
2021/11/21 07:31:32;;;;;;;9.63;4.40;;;8.90;99.90;;;;;;5013006;28;20857;-69
2021/11/21 07:33:58;;;;;;;9.17;4.17;;;8.90;99.90;;;;;;5013109;28;20416;-68
2021/11/21 07:36:24;;;;;;;9.50;5.00;;;8.90;99.90;;;;;;5030704;28;20509;-69
2021/11/21 07:38:50;;;;;;;9.20;5.27;;;8.90;99.90;;;;;;5031936;28;20176;-68
2021/11/21 07:41:16;;;;;;;11.80;5.23;;;8.90;99.90;;;;;;5031584;28;20259;-68
2021/11/21 07:43:42;;;;;;;11.00;5.10;;;8.90;99.90;;;;;;5031527;28;20453;-68
2021/11/21 07:46:08;;;;;;;13.90;5.80;;;8.90;99.90;;;;;;5030418;28;20779;-67
2021/11/21 07:48:34;;;;;;;7.57;4.60;;;8.90;99.90;;;;;;5031424;28;20407;-68
2021/11/21 07:51:00;;;;;;;11.53;5.43;;;8.80;99.90;;;;;;5031227;28;20260;-67
2021/11/21 07:53:26;;;;;;;12.23;5.53;;;8.80;99.90;;;;;;5031175;28;20451;-68
2021/11/21 07:55:53;;;;;;;7.60;5.00;;;8.70;99.90;;;;;;5031222;28;20831;-69
2021/11/21 07:58:20;;;;;;;10.93;5.90;;;8.70;99.90;;;;;;5030088;28;20445;-68
2021/11/21 08:00:46;;;;;;;6.80;5.03;;;8.60;99.90;;;;;;5031110;28;20966;-68
2021/11/21 08:03:12;;;;;;;6.93;4.50;;;8.70;99.90;;;;;;5031231;28;20779;-68
2021/11/21 08:05:37;;;;;;;11.77;4.53;;;8.60;99.90;;;;;;5030558;28;20419;-68
2021/11/21 08:08:04;;;;;;;9.00;5.23;;;8.60;99.90;;;;;;5031021;28;20191;-68
2021/11/21 08:10:30;;;;;;;9.23;5.63;;;8.50;99.90;;;;;;5030840;28;20687;-68
2021/11/21 08:12:56;;;;;;;6.87;4.70;;;8.50;99.90;;;;;;5030852;28;20454;-68
2021/11/21 08:15:22;;;;;;;9.53;5.07;;;8.50;99.90;;;;;;5030497;28;20407;-68
2021/11/21 08:17:47;;;;;;;17.90;6.53;;;8.50;99.90;;;;;;5011310;28;20252;-68
2021/11/21 08:20:13;;;;;;;5.43;4.10;;;8.50;99.90;;;;;;5019908;28;20298;-69
2021/11/21 08:22:41;;;;;;;11.77;4.67;;;8.50;99.90;;;;;;5030787;28;20181;-68
2021/11/21 08:25:07;;;;;;;7.23;5.03;;;8.50;99.90;;;;;;5031057;28;20428;-68
2021/11/21 08:27:32;;;;;;;10.07;4.67;;;8.50;99.90;;;;;;5030915;28;20408;-68
2021/11/21 08:29:58;;;;;;;12.87;5.30;;;8.50;99.90;;;;;;5030677;28;20419;-69
2021/11/21 08:32:24;;;;;;;8.27;4.60;;;8.60;99.90;;;;;;5030779;28;20203;-68
2021/11/21 08:34:49;;;;;;;7.60;5.03;;;8.60;99.90;;;;;;5030722;28;20165;-70
2021/11/21 08:37:15;;;;;;;9.47;5.37;;;8.40;99.90;;;;;;5032503;28;20179;-70
2021/11/21 08:39:41;;;;;;;8.33;4.00;;;8.40;99.90;;;;;;5034715;28;20724;-68
2021/11/21 08:42:07;;;;;;;9.90;6.53;;;8.40;99.90;;;;;;5034764;28;20172;-68
2021/11/21 08:44:33;;;;;;;10.53;5.97;;;8.40;99.90;;;;;;5034543;28;20407;-68
2021/11/21 08:46:59;;;;;;;11.10;4.00;;;8.40;99.90;;;;;;5034616;28;20169;-68
2021/11/21 08:49:24;;;;;;;8.60;5.40;;;8.50;99.90;;;;;;5034536;28;20431;-69
2021/11/21 08:51:50;;;;;;;8.03;5.00;;;8.50;99.90;;;;;;5034194;28;20450;-69
2021/11/21 08:54:16;;;;;;;5.47;3.40;;;8.40;99.90;;;;;;5034371;28;20530;-70
2021/11/21 08:56:44;;;;;;;9.37;5.20;;;8.40;99.90;;;;;;5034419;28;20278;-69
2021/11/21 08:59:10;;;;;;;8.33;4.70;;;8.40;99.90;;;;;;5034395;28;20515;-71
2021/11/21 09:01:35;;;;;;;9.10;4.73;;;8.50;99.90;;;;;;5029819;28;20523;-68
2021/11/21 09:04:01;;;;;;;15.07;5.67;;;8.50;99.90;;;;;;5014521;28;20260;-68
2021/11/21 09:06:27;;;;;;;5.50;3.47;;;8.50;99.90;;;;;;5014177;28;20635;-69
2021/11/21 09:08:52;;;;;;;7.13;3.93;;;8.50;99.90;;;;;;5014560;28;20174;-69
2021/11/21 09:11:18;;;;;;;9.03;4.57;;;8.50;99.90;;;;;;5014273;28;20655;-70
2021/11/21 09:13:44;;;;;;;9.23;4.20;;;8.50;99.90;;;;;;5025175;28;20582;-69
2021/11/21 09:16:09;;;;;;;7.70;4.20;;;8.50;99.90;;;;;;5034406;28;20164;-68
2021/11/21 09:18:36;;;;;;;7.90;5.10;;;8.60;99.90;;;;;;5034745;28;20251;-66
2021/11/21 09:21:02;;;;;;;8.20;4.33;;;8.60;99.90;;;;;;5033148;28;20536;-68
2021/11/21 09:23:28;;;;;;;10.00;5.20;;;8.60;99.90;;;;;;5034562;28;20415;-67
2021/11/21 09:25:54;;;;;;;7.07;5.70;;;8.70;99.90;;;;;;5034226;28;20444;-68
2021/11/21 09:28:21;;;;;;;7.13;5.23;;;8.70;99.90;;;;;;5034708;28;20179;-67
2021/11/21 09:30:48;;;;;;;8.80;5.87;;;8.70;99.90;;;;;;5034197;28;20455;-67
2021/11/21 09:33:14;;;;;;;7.40;4.60;;;8.70;99.90;;;;;;5032995;28;20462;-66
2021/11/21 09:35:40;;;;;;;8.90;4.53;;;8.70;99.90;;;;;;5034177;28;20899;-68
2021/11/21 09:38:06;;;;;;;8.13;4.53;;;8.70;99.90;;;;;;5034436;28;20188;-68
2021/11/21 09:40:32;;;;;;;6.00;3.73;;;8.80;99.90;;;;;;5034364;28;20241;-68
2021/11/21 09:42:59;;;;;;;5.30;4.10;;;8.70;99.90;;;;;;5034185;28;20435;-68
2021/11/21 09:45:25;;;;;;;8.93;4.70;;;8.60;99.90;;;;;;5028516;28;20432;-67
2021/11/21 09:47:55;;;;;;;7.03;4.50;;;8.60;99.90;;;;;;5014089;28;20405;-68
2021/11/21 09:50:23;;;;;;;5.53;3.37;;;8.60;99.90;;;;;;5014216;28;20325;-68
2021/11/21 09:52:50;;;;;;;6.13;4.40;;;8.60;99.90;;;;;;5014319;28;20987;-67
2021/11/21 09:55:17;;;;;;;5.90;4.73;;;8.70;99.90;;;;;;5013870;28;20396;-67
2021/11/21 09:57:44;;;;;;;8.97;3.93;;;8.80;99.90;;;;;;5017166;28;20416;-68
2021/11/21 10:00:22;;;;;;;4.83;3.83;;;8.70;99.90;;;;;;5032877;28;20788;-68
2021/11/21 10:02:57;;;;;;;7.50;3.80;;;8.70;99.90;;;;;;5033165;28;20446;-69
2021/11/21 10:05:25;;;;;;;9.27;4.20;;;8.80;99.90;;;;;;5033684;28;20413;-69
2021/11/21 10:08:14;;;;;;;7.90;5.70;;;8.90;99.90;;;;;;5025030;28;20789;-69
2021/11/21 10:10:53;;;;;;;7.23;4.13;;;8.90;99.90;;;;;;5013169;28;20460;-68
2021/11/21 10:13:36;;;;;;;9.13;4.60;;;8.80;99.90;;;;;;5020611;28;20453;-68
2021/11/21 10:16:17;;;;;;;6.20;4.47;;;8.80;99.90;;;;;;5033625;28;20439;-69
2021/11/21 10:18:56;;;;;;;8.60;4.37;;;8.90;99.90;;;;;;5033624;28;20828;-68
2021/11/21 10:21:30;;;;;;;8.67;4.13;;;8.90;99.90;;;;;;5032851;28;20463;-68
2021/11/21 10:24:20;;;;;;;6.53;4.30;;;8.80;99.90;;;;;;5033481;28;20408;-68
2021/11/21 10:26:47;;;;;;;8.83;4.00;;;8.80;99.90;;;;;;5033337;28;20441;-68
2021/11/21 10:29:46;;;;;;;12.40;4.93;;;8.90;99.90;;;;;;5031931;28;20423;-69
2021/11/21 10:32:21;;;;;;;6.43;5.10;;;8.80;99.90;;;;;;5033049;28;20490;-67
2021/11/21 10:34:50;;;;;;;6.93;4.80;;;8.80;99.90;;;;;;5033053;28;20771;-68
2021/11/21 10:37:17;;;;;;;6.60;3.93;;;8.90;99.90;;;;;;5033209;28;20783;-68
2021/11/21 10:39:47;;;;;;;6.00;4.83;;;8.80;99.90;;;;;;5032968;28;20423;-68
2021/11/21 10:42:14;;;;;;;8.47;5.00;;;8.90;99.90;;;;;;5033017;28;20407;-69
2021/11/21 10:44:50;;;;;;;9.50;6.10;;;9.00;99.90;;;;;;5032847;28;20772;-68
2021/11/21 10:47:16;;;;;;;12.10;5.60;;;9.00;99.90;;;;;;5033061;28;20869;-68
2021/11/21 10:49:42;;;;;;;5.37;3.90;;;8.90;99.90;;;;;;5032822;28;20426;-69
2021/11/21 10:52:20;;;;;;;7.07;4.73;;;8.90;99.90;;;;;;5032794;28;20604;-71
2021/11/21 10:54:57;;;;;;;11.27;4.60;;;9.00;99.90;;;;;;5032546;28;20169;-71
2021/11/21 10:57:27;;;;;;;6.43;4.17;;;9.00;99.90;;;;;;5031612;28;20427;-68
2021/11/21 10:59:59;;;;;;;9.10;3.80;;;8.90;99.90;;;;;;5031904;28;20462;-68
2021/11/21 11:02:30;;;;;;;6.77;4.83;;;9.00;99.90;;;;;;5032758;28;20753;-67
2021/11/21 11:05:15;;;;;;;9.47;4.53;;;9.00;99.90;;;;;;5032615;28;20416;-69
2021/11/21 11:07:46;;;;;;;9.63;4.70;;;9.10;99.90;;;;;;5032682;28;20403;-68
2021/11/21 11:10:13;;;;;;;6.87;5.13;;;9.10;99.90;;;;;;5032366;28;20430;-70
2021/11/21 11:12:45;;;;;;;10.60;5.80;;;9.00;99.90;;;;;;5032472;28;20949;-68
2021/11/21 11:15:12;;;;;;;7.17;4.80;;;9.00;99.90;;;;;;5032547;28;20406;-68
2021/11/21 11:17:38;;;;;;;7.77;4.73;;;9.00;99.90;;;;;;5032543;28;20395;-69
2021/11/21 11:20:07;;;;;;;9.50;4.50;;;9.10;99.90;;;;;;5032303;28;20521;-69
2021/11/21 11:22:34;;;;;;;9.10;5.33;;;9.10;99.90;;;;;;5032273;28;20502;-69
2021/11/21 11:25:03;;;;;;;8.80;3.83;;;9.10;99.90;;;;;;5030961;28;20416;-69
2021/11/21 11:27:51;;;;;;;6.70;4.37;;;9.20;99.90;;;;;;5031941;28;20470;-68
2021/11/21 11:30:28;;;;;;;6.30;4.07;;;9.30;99.90;;;;;;5032233;28;20444;-68
2021/11/21 11:33:07;;;;;;;4.93;3.23;;;9.30;99.90;;;;;;5032154;28;20455;-67
2021/11/21 11:35:34;;;;;;;11.07;4.80;;;9.30;99.90;;;;;;5032158;28;20409;-67
2021/11/21 11:38:30;;;;;;;5.20;3.50;;;9.30;99.90;;;;;;5031680;28;20410;-66
2021/11/21 11:41:01;;;;;;;4.83;3.30;;;9.40;99.90;;;;;;5027275;28;20498;-68
2021/11/21 11:43:39;;;;;;;8.80;4.47;;;9.50;99.90;;;;;;5032565;28;20823;-68
2021/11/21 11:46:14;;;;;;;7.40;3.37;;;9.20;99.90;;;;;;5014878;28;20852;-69
2021/11/21 11:49:16;;;;;;;8.00;4.17;;;9.30;99.90;;;;;;5012422;28;20409;-69
2021/11/21 11:51:41;;;;;;;6.73;3.53;;;9.40;99.90;;;;;;5007658;28;20463;-68
2021/11/21 11:54:15;;;;;;;5.10;3.50;;;9.50;99.90;;;;;;5012203;28;20407;-68
2021/11/21 11:56:50;;;;;;;7.23;3.60;;;9.60;99.90;;;;;;5017228;28;20207;-67
2021/11/21 11:59:41;;;;;;;8.23;4.17;;;9.50;99.90;;;;;;5051778;28;20408;-68
2021/11/21 12:02:27;;;;;;;5.40;3.80;;;9.40;99.90;;;;;;5051688;28;20453;-69
2021/11/21 12:04:55;;;;;;;5.07;3.33;;;9.60;99.90;;;;;;5051765;28;20927;-68
2021/11/21 12:07:33;;;;;;;8.00;4.97;;;9.50;99.90;;;;;;5051759;28;20429;-67
2021/11/21 12:10:03;;;;;;;5.77;3.70;;;9.50;99.90;;;;;;5051384;28;20495;-67
2021/11/21 12:12:50;;;;;;;5.23;3.53;;;9.20;99.90;;;;;;5051325;28;20445;-66
2021/11/21 12:15:50;;;;;;;8.27;4.83;;;9.20;99.90;;;;;;5031619;28;20485;-67
2021/11/21 12:18:16;;;;;;;5.27;3.53;;;9.30;99.90;;;;;;5027398;28;20772;-69
2021/11/21 12:21:00;;;;;;;7.47;3.77;;;9.20;99.90;;;;;;5031209;28;20442;-68
2021/11/21 12:23:56;;;;;;;7.57;3.80;;;9.20;99.90;;;;;;5031771;28;20404;-69
2021/11/21 12:26:27;;;;;;;5.43;3.07;;;9.20;99.90;;;;;;5027467;28;20422;-69
2021/11/21 12:29:02;;;;;;;9.30;5.13;;;9.30;99.90;;;;;;5031976;28;20771;-68
2021/11/21 12:31:48;;;;;;;4.63;3.47;;;9.30;99.90;;;;;;5031701;28;20402;-67
2021/11/21 12:34:38;;;;;;;3.70;3.40;;;9.40;99.90;;;;;;5031106;28;20416;-68
2021/11/21 12:37:17;;;;;;;6.57;3.90;;;9.50;99.90;;;;;;5011914;28;20458;-66
2021/11/21 12:39:50;;;;;;;7.70;4.70;;;9.60;99.90;;;;;;5012206;28;20419;-66
2021/11/21 12:42:18;;;;;;;6.33;3.70;;;9.70;99.90;;;;;;5019921;28;20417;-67
2021/11/21 12:44:44;;;;;;;8.00;3.87;;;9.50;99.90;;;;;;5019982;28;20422;-67
2021/11/21 12:47:10;;;;;;;5.47;3.13;;;9.30;99.90;;;;;;5012254;28;20403;-67
2021/11/21 12:49:42;;;;;;;8.83;5.13;;;9.30;99.90;;;;;;5012152;28;20427;-67
2021/11/21 12:52:17;;;;;;;5.70;4.03;;;9.40;99.90;;;;;;5011920;28;20977;-68
2021/11/21 12:54:43;;;;;;;6.30;3.80;;;9.60;99.90;;;;;;5011575;28;20399;-66
2021/11/21 12:57:12;;;;;;;6.37;3.73;;;9.80;99.90;;;;;;5011978;28;20403;-70
2021/11/21 12:59:57;;;;;;;10.50;3.50;;;9.60;99.90;;;;;;5011441;28;20497;-67